Time;durP1;ratioP1;P1;durP2;ratioP2;P2;SDS_P1;SDS_P2;PMS_P1;PMS_P2;Temp;Humidity;BMP_temperature;BMP_pressure;BME280_temperature;BME280_humidity;BME280_pressure;Samples;Min_cycle;Max_cycle;Signal;HPM_P1;HPM_P2
2022/04/21 00:02:18;;;;;;;4.87;4.23;;;16.50;36.30;;;;;;5020918;28;20568;-41
2022/04/21 00:04:43;;;;;;;7.67;4.40;;;16.30;36.70;;;;;;5023576;28;20190;-41
2022/04/21 00:07:09;;;;;;;5.33;4.73;;;16.40;36.80;;;;;;5025127;28;20200;-41
2022/04/21 00:09:34;;;;;;;7.20;4.53;;;16.40;36.60;;;;;;5023121;28;20220;-41
2022/04/21 00:12:00;;;;;;;4.67;4.20;;;16.40;36.50;;;;;;5025983;28;20253;-41
2022/04/21 00:14:25;;;;;;;6.83;4.70;;;16.50;36.70;;;;;;5025300;28;20194;-41
2022/04/21 00:16:51;;;;;;;5.07;4.53;;;16.50;36.50;;;;;;5025111;28;20201;-41
2022/04/21 00:19:17;;;;;;;4.80;4.33;;;16.50;36.30;;;;;;5025724;28;20224;-41
2022/04/21 00:24:26;;;;;;;5.50;4.50;;;16.60;36.70;;;;;;5024590;28;20208;-41
2022/04/21 00:26:52;;;;;;;4.87;4.47;;;16.60;36.30;;;;;;5025059;28;20444;-41
2022/04/21 00:29:17;;;;;;;6.93;5.17;;;16.50;36.80;;;;;;5022372;28;20683;-41
2022/04/21 00:31:43;;;;;;;5.70;4.40;;;16.50;36.30;;;;;;5020359;28;21807;-41
2022/04/21 00:34:09;;;;;;;4.60;4.20;;;16.40;36.50;;;;;;5020979;28;20209;-41
2022/04/21 00:36:35;;;;;;;11.23;5.00;;;16.40;36.60;;;;;;5025979;28;20197;-41
2022/04/21 00:39:01;;;;;;;6.07;4.37;;;16.30;36.40;;;;;;5022146;28;20463;-42
2022/04/21 00:41:26;;;;;;;6.30;4.93;;;16.30;36.60;;;;;;5025966;28;20695;-42
2022/04/21 00:43:52;;;;;;;5.23;4.60;;;16.20;37.30;;;;;;5025858;28;20200;-41
2022/04/21 00:46:19;;;;;;;5.00;4.40;;;16.20;36.80;;;;;;5021309;28;20198;-42
2022/04/21 00:48:46;;;;;;;5.13;4.63;;;16.20;36.80;;;;;;5020945;28;20261;-41
2022/04/21 00:51:12;;;;;;;5.60;5.10;;;16.20;37.40;;;;;;5013298;28;21002;-41
2022/04/21 00:53:41;;;;;;;5.67;4.83;;;16.10;37.00;;;;;;5027573;28;20541;-42
2022/04/21 00:56:07;;;;;;;5.70;5.10;;;16.10;37.20;;;;;;5028603;28;20808;-43
2022/04/21 00:58:35;;;;;;;5.13;4.73;;;16.10;37.60;;;;;;5027192;28;20445;-42
2022/04/21 01:01:01;;;;;;;4.53;4.03;;;16.00;37.60;;;;;;5029142;28;20602;-41
2022/04/21 01:03:27;;;;;;;5.30;4.90;;;16.00;37.70;;;;;;5032120;28;20930;-41
2022/04/21 01:05:53;;;;;;;6.00;5.40;;;16.00;37.50;;;;;;5026250;28;20459;-42
2022/04/21 01:08:19;;;;;;;5.00;4.50;;;16.10;37.50;;;;;;5029159;28;20440;-42
2022/04/21 01:10:45;;;;;;;6.83;5.00;;;16.00;37.40;;;;;;5022399;28;20436;-41
2022/04/21 01:13:12;;;;;;;6.47;4.70;;;15.90;37.50;;;;;;5023786;28;20279;-42
2022/04/21 01:15:39;;;;;;;5.20;4.70;;;15.90;37.60;;;;;;5024875;28;20436;-42
2022/04/21 01:18:06;;;;;;;4.77;4.13;;;15.90;37.60;;;;;;5029184;28;20866;-42
2022/04/21 01:20:32;;;;;;;5.23;4.57;;;15.90;37.50;;;;;;5025827;28;20466;-41
2022/04/21 01:22:58;;;;;;;4.97;4.57;;;15.90;37.60;;;;;;5026886;28;20452;-42
2022/04/21 01:25:24;;;;;;;5.47;4.80;;;15.90;37.60;;;;;;5027245;28;20447;-41
2022/04/21 01:27:56;;;;;;;5.70;5.20;;;15.80;37.60;;;;;;5026301;28;20218;-41
2022/04/21 01:30:22;;;;;;;6.83;5.37;;;15.80;37.60;;;;;;5021697;28;20498;-41
2022/04/21 01:32:49;;;;;;;6.20;5.17;;;15.70;37.70;;;;;;5021251;28;20582;-41
2022/04/21 01:35:15;;;;;;;6.90;5.70;;;15.60;37.90;;;;;;5025891;28;20204;-42
2022/04/21 01:43:11;;;;;;;7.73;5.23;;;15.50;38.40;;;;;;5024508;28;20815;-41
2022/04/21 01:45:37;;;;;;;5.13;4.73;;;15.60;38.40;;;;;;5024276;28;20464;-42
2022/04/21 01:48:03;;;;;;;5.50;5.00;;;15.70;38.40;;;;;;5023069;28;20577;-41
2022/04/21 01:50:28;;;;;;;6.03;5.07;;;15.80;38.20;;;;;;5016199;28;20201;-41
2022/04/21 01:52:57;;;;;;;6.53;5.40;;;15.90;38.10;;;;;;5024505;28;20506;-42
2022/04/21 01:55:22;;;;;;;5.70;5.20;;;15.90;37.90;;;;;;5028439;28;20328;-41
2022/04/21 01:57:48;;;;;;;6.50;5.40;;;15.90;37.80;;;;;;5022617;28;21100;-42
2022/04/21 02:00:14;;;;;;;12.83;5.07;;;15.90;37.90;;;;;;5017138;28;20656;-42
2022/04/21 02:02:39;;;;;;;6.27;5.63;;;15.80;38.10;;;;;;5025047;28;20240;-42
2022/04/21 02:05:05;;;;;;;6.47;5.87;;;15.80;37.90;;;;;;5028066;28;20193;-42
2022/04/21 02:07:31;;;;;;;5.50;5.00;;;15.80;38.30;;;;;;5016245;28;20197;-41
2022/04/21 02:09:57;;;;;;;5.53;5.03;;;15.70;38.60;;;;;;5027985;28;20197;-41
2022/04/21 02:12:24;;;;;;;6.73;4.70;;;15.50;38.90;;;;;;5029670;28;20237;-41
2022/04/21 02:14:51;;;;;;;5.07;4.67;;;15.40;39.10;;;;;;5029396;28;20568;-42
2022/04/21 02:17:17;;;;;;;6.20;4.97;;;15.40;38.90;;;;;;5029166;28;20451;-41
2022/04/21 02:19:43;;;;;;;5.47;4.97;;;15.40;38.90;;;;;;5019465;28;20820;-42
2022/04/21 02:22:08;;;;;;;5.80;5.30;;;15.40;38.80;;;;;;5017092;28;20198;-41
2022/04/21 02:24:34;;;;;;;6.80;6.10;;;15.30;38.90;;;;;;5024558;28;20192;-41
2022/04/21 02:26:59;;;;;;;6.80;5.20;;;15.30;39.00;;;;;;5026278;28;20656;-42
2022/04/21 02:29:25;;;;;;;7.67;5.60;;;15.30;39.00;;;;;;5027332;28;20316;-42
2022/04/21 02:31:50;;;;;;;6.60;5.87;;;15.10;39.00;;;;;;5025794;28;20719;-42
2022/04/21 02:34:16;;;;;;;6.67;5.87;;;15.00;39.90;;;;;;5027783;28;20666;-41
2022/04/21 02:36:42;;;;;;;8.37;7.00;;;14.90;39.70;;;;;;5028771;28;20208;-41
2022/04/21 02:39:07;;;;;;;8.07;6.43;;;14.70;39.80;;;;;;5029802;28;20280;-41
2022/04/21 02:41:33;;;;;;;6.97;6.33;;;14.70;40.20;;;;;;5026150;28;20648;-41
2022/04/21 02:43:59;;;;;;;7.93;7.13;;;14.60;40.50;;;;;;5025219;28;20201;-42
2022/04/21 02:46:28;;;;;;;7.03;6.33;;;14.70;40.60;;;;;;5028736;28;20193;-41
2022/04/21 02:48:59;;;;;;;6.87;6.27;;;14.70;40.30;;;;;;5027506;28;20440;-42
2022/04/21 02:51:24;;;;;;;8.10;5.80;;;14.60;40.30;;;;;;5020588;28;20498;-41
2022/04/21 02:59:19;;;;;;;5.93;5.43;;;14.40;40.80;;;;;;5029412;28;20953;-42
2022/04/21 03:01:45;;;;;;;7.07;6.40;;;14.20;41.00;;;;;;5026127;28;20509;-42
2022/04/21 03:04:10;;;;;;;7.67;6.97;;;14.20;41.30;;;;;;5019740;28;20859;-42
2022/04/21 03:06:36;;;;;;;6.80;6.13;;;14.10;41.60;;;;;;5027984;28;20201;-41
2022/04/21 03:09:01;;;;;;;7.00;6.20;;;14.10;41.50;;;;;;5025390;28;20198;-41
2022/04/21 03:11:27;;;;;;;11.20;5.47;;;14.10;41.60;;;;;;5024039;28;20201;-41
2022/04/21 03:13:53;;;;;;;7.07;5.60;;;14.20;41.90;;;;;;5027571;28;20312;-41
2022/04/21 03:16:19;;;;;;;6.23;5.63;;;14.20;41.40;;;;;;5025620;28;20292;-41
2022/04/21 03:18:45;;;;;;;5.80;5.20;;;14.20;41.40;;;;;;5028122;28;20444;-42
2022/04/21 03:26:39;;;;;;;7.73;5.60;;;14.10;41.80;;;;;;5019907;28;20501;-43
2022/04/21 03:29:04;;;;;;;6.53;5.93;;;14.00;42.00;;;;;;5019947;28;20866;-41
2022/04/21 03:31:30;;;;;;;6.10;5.50;;;13.90;42.10;;;;;;5022134;28;20277;-42
2022/04/21 03:33:55;;;;;;;7.20;6.50;;;13.90;42.10;;;;;;5023145;28;20676;-41
2022/04/21 03:36:21;;;;;;;6.60;6.00;;;14.00;42.00;;;;;;5026396;28;20237;-41
2022/04/21 03:38:47;;;;;;;5.70;5.20;;;14.00;42.20;;;;;;5026541;28;20197;-42
2022/04/21 03:41:13;;;;;;;6.73;6.00;;;14.00;42.20;;;;;;5023317;28;20205;-41
2022/04/21 03:43:39;;;;;;;7.17;6.50;;;14.10;41.80;;;;;;5024197;28;20439;-41
2022/04/21 03:46:04;;;;;;;6.10;5.57;;;14.00;41.50;;;;;;5022567;28;20193;-42
2022/04/21 03:48:30;;;;;;;5.80;5.30;;;14.00;41.70;;;;;;5025643;28;20256;-41
2022/04/21 03:50:56;;;;;;;6.23;5.57;;;14.00;41.60;;;;;;5021954;28;20201;-41
2022/04/21 03:53:21;;;;;;;8.13;7.27;;;14.00;41.60;;;;;;5018483;28;20624;-41
2022/04/21 03:55:47;;;;;;;7.60;6.47;;;14.00;41.60;;;;;;5029275;28;20235;-41
2022/04/21 03:58:13;;;;;;;7.53;6.17;;;14.00;41.80;;;;;;5018998;28;20189;-42
2022/04/21 04:00:38;;;;;;;8.13;6.20;;;14.00;42.50;;;;;;5016191;28;20791;-42
2022/04/21 04:03:04;;;;;;;6.37;5.77;;;14.00;41.70;;;;;;5026932;28;20255;-41
2022/04/21 04:05:29;;;;;;;7.37;6.60;;;14.00;41.70;;;;;;5027966;28;20201;-41
2022/04/21 04:10:52;;;;;;;10.40;6.50;;;14.00;41.90;;;;;;5019712;28;20250;-42
2022/04/21 04:13:18;;;;;;;11.17;7.67;;;13.90;42.00;;;;;;5014960;28;20487;-42
2022/04/21 04:15:49;;;;;;;7.40;6.70;;;13.70;42.00;;;;;;5021718;28;20440;-42
2022/04/21 04:18:16;;;;;;;7.70;6.63;;;13.60;42.40;;;;;;5019243;28;20481;-42
2022/04/21 04:20:42;;;;;;;7.00;6.40;;;13.40;42.40;;;;;;5016524;28;21013;-42
2022/04/21 04:23:08;;;;;;;6.87;6.17;;;13.20;42.60;;;;;;5026294;28;20443;-42
2022/04/21 04:25:35;;;;;;;9.40;6.73;;;13.10;43.10;;;;;;5017011;28;20997;-42
2022/04/21 04:28:03;;;;;;;6.87;6.27;;;13.00;43.30;;;;;;5025147;28;20668;-42
2022/04/21 04:30:29;;;;;;;8.17;7.57;;;12.80;43.50;;;;;;5027428;28;21331;-42
2022/04/21 04:32:55;;;;;;;7.50;6.50;;;12.80;43.90;;;;;;5021227;28;20495;-41
2022/04/21 04:35:21;;;;;;;6.90;6.30;;;12.70;44.30;;;;;;5027099;28;20201;-42
2022/04/21 04:37:46;;;;;;;7.90;6.60;;;12.70;44.50;;;;;;5026089;28;20208;-42
2022/04/21 04:40:13;;;;;;;6.90;6.07;;;12.70;44.60;;;;;;5028218;28;21123;-42
2022/04/21 04:42:38;;;;;;;18.40;7.20;;;12.60;44.70;;;;;;5029407;28;20204;-41
2022/04/21 04:47:49;;;;;;;9.03;7.37;;;12.40;45.10;;;;;;5022528;28;20250;-42
2022/04/21 04:50:15;;;;;;;7.80;6.60;;;12.30;45.20;;;;;;5028130;28;20440;-42
2022/04/21 04:52:40;;;;;;;7.87;6.47;;;12.20;45.30;;;;;;5022751;28;20233;-42
2022/04/21 04:55:11;;;;;;;7.23;6.60;;;12.20;45.50;;;;;;5025040;28;20300;-41
2022/04/21 04:57:38;;;;;;;9.60;6.90;;;12.10;45.60;;;;;;5030771;28;20589;-41
2022/04/21 05:00:05;;;;;;;8.20;7.07;;;12.10;45.80;;;;;;5028407;28;20442;-42
2022/04/21 05:02:31;;;;;;;8.50;7.20;;;12.00;45.80;;;;;;5031375;28;20432;-42
2022/04/21 05:04:56;;;;;;;8.20;7.40;;;12.00;45.90;;;;;;5022310;28;20446;-42
2022/04/21 05:07:22;;;;;;;7.63;6.93;;;12.10;45.90;;;;;;5020258;28;20197;-41
2022/04/21 05:09:47;;;;;;;8.60;7.80;;;12.10;45.90;;;;;;5029204;28;20572;-41
2022/04/21 05:12:13;;;;;;;9.00;8.20;;;12.00;46.40;;;;;;5023751;28;20225;-41
2022/04/21 05:14:39;;;;;;;9.50;7.40;;;12.00;46.90;;;;;;5025798;28;20193;-42
2022/04/21 05:17:05;;;;;;;8.17;7.47;;;12.00;47.00;;;;;;5028697;28;20439;-42
2022/04/21 05:19:30;;;;;;;8.67;7.80;;;12.00;47.10;;;;;;5029800;28;20636;-42
2022/04/21 05:22:02;;;;;;;8.10;7.30;;;12.10;47.00;;;;;;5018588;28;20237;-41
2022/04/21 05:24:32;;;;;;;8.70;7.83;;;12.20;47.10;;;;;;5016804;28;20452;-41
2022/04/21 05:26:58;;;;;;;9.27;8.47;;;12.30;47.20;;;;;;5030595;28;21139;-41
2022/04/21 05:32:09;;;;;;;8.80;7.90;;;12.30;47.20;;;;;;5026144;28;21055;-42
2022/04/21 05:34:35;;;;;;;9.07;8.27;;;12.40;47.30;;;;;;5028943;28;20981;-41
2022/04/21 05:37:01;;;;;;;11.57;7.07;;;12.50;47.40;;;;;;5025140;28;20461;-42
2022/04/21 05:39:30;;;;;;;9.60;7.90;;;12.50;48.00;;;;;;5022157;28;20831;-42
2022/04/21 05:41:58;;;;;;;8.00;7.20;;;12.90;47.00;;;;;;5021518;28;20471;-40
2022/04/21 05:44:24;;;;;;;8.67;7.83;;;13.40;45.90;;;;;;5025139;28;20810;-41
2022/04/21 05:46:51;;;;;;;9.03;8.13;;;13.70;44.80;;;;;;5022720;28;20526;-41
2022/04/21 05:49:17;;;;;;;8.23;7.40;;;14.10;44.20;;;;;;5021155;28;20448;-41
2022/04/21 05:51:46;;;;;;;8.37;7.47;;;14.30;43.40;;;;;;5026954;28;20505;-41
2022/04/21 05:54:12;;;;;;;10.03;7.90;;;14.50;43.20;;;;;;5029927;28;20448;-41
2022/04/21 05:56:37;;;;;;;10.47;7.50;;;14.70;42.80;;;;;;5029684;28;20997;-41
2022/04/21 05:59:03;;;;;;;9.80;8.13;;;14.90;42.60;;;;;;5029763;28;20196;-41
2022/04/21 06:01:30;;;;;;;12.67;8.10;;;15.10;42.20;;;;;;5030362;28;20205;-41
2022/04/21 06:03:56;;;;;;;8.60;7.90;;;15.30;42.00;;;;;;5029713;28;20200;-41
2022/04/21 06:06:22;;;;;;;9.80;7.83;;;15.40;41.60;;;;;;5027422;28;21069;-41
2022/04/21 06:08:47;;;;;;;10.17;9.13;;;15.50;41.70;;;;;;5028274;28;20194;-41
2022/04/21 06:11:14;;;;;;;9.03;8.20;;;15.70;41.60;;;;;;5027212;28;20436;-41
2022/04/21 06:13:41;;;;;;;10.10;9.10;;;15.80;41.30;;;;;;5028937;28;20229;-41
2022/04/21 06:16:07;;;;;;;8.97;8.13;;;15.90;41.20;;;;;;5026376;28;20482;-40
2022/04/21 06:18:33;;;;;;;9.23;8.23;;;16.00;41.00;;;;;;5029187;28;20447;-41
2022/04/21 06:20:59;;;;;;;9.30;8.33;;;16.20;40.90;;;;;;5025655;28;21539;-41
2022/04/21 06:23:25;;;;;;;9.40;8.60;;;16.30;41.00;;;;;;5026876;28;20467;-41
2022/04/21 06:25:58;;;;;;;10.40;9.40;;;16.40;40.80;;;;;;5027196;28;20201;-41
2022/04/21 06:28:28;;;;;;;10.17;7.80;;;16.50;41.10;;;;;;5030160;28;20303;-41
2022/04/21 06:30:54;;;;;;;10.57;9.57;;;16.70;40.50;;;;;;5023833;28;20436;-41
2022/04/21 06:33:19;;;;;;;10.53;8.67;;;16.80;40.20;;;;;;5026530;28;20570;-41
2022/04/21 06:35:45;;;;;;;9.47;8.70;;;16.90;40.20;;;;;;5028745;28;20978;-41
2022/04/21 06:38:11;;;;;;;9.40;8.53;;;16.80;40.40;;;;;;5026635;28;20248;-41
2022/04/21 06:40:37;;;;;;;10.70;8.93;;;16.80;40.40;;;;;;5022711;28;20195;-41
2022/04/21 06:48:01;;;;;;;9.43;8.30;;;17.00;40.30;;;;;;5019306;28;20444;-41
2022/04/21 06:48:33;;;;;;;11.00;10.00;;;17.10;40.10;;;;;;5028911;28;20494;-41
2022/04/21 06:50:58;;;;;;;10.57;9.43;;;17.10;40.20;;;;;;5029177;28;20546;-41
2022/04/21 06:53:24;;;;;;;9.93;9.10;;;17.30;40.00;;;;;;5029164;28;20221;-41
2022/04/21 06:55:50;;;;;;;10.03;9.17;;;17.30;39.90;;;;;;5029523;28;20193;-41
2022/04/21 06:58:15;;;;;;;9.93;8.93;;;17.40;39.80;;;;;;5029146;28;20190;-41
2022/04/21 07:00:41;;;;;;;9.40;8.50;;;17.70;39.30;;;;;;5027010;28;20224;-41
2022/04/21 07:03:08;;;;;;;10.00;9.00;;;17.90;38.90;;;;;;5027641;28;20204;-41
2022/04/21 07:05:34;;;;;;;11.40;9.83;;;18.10;38.50;;;;;;5023440;28;20447;-41
2022/04/21 07:07:59;;;;;;;9.97;8.97;;;18.20;38.40;;;;;;5023517;28;20444;-41
2022/04/21 07:10:25;;;;;;;11.03;10.03;;;18.40;38.30;;;;;;5021926;28;20525;-41
2022/04/21 07:12:51;;;;;;;11.40;10.30;;;18.50;38.30;;;;;;5027892;28;20240;-41
2022/04/21 07:15:17;;;;;;;10.33;9.40;;;18.70;38.20;;;;;;5030055;28;20197;-41
2022/04/21 07:17:43;;;;;;;10.17;9.10;;;18.80;37.90;;;;;;5028127;28;20561;-41
2022/04/21 07:20:11;;;;;;;12.03;10.83;;;18.90;37.70;;;;;;5027224;28;20503;-41
2022/04/21 07:22:37;;;;;;;11.57;10.47;;;19.10;37.50;;;;;;5030272;28;20443;-41
2022/04/21 07:25:05;;;;;;;11.60;10.60;;;19.10;37.60;;;;;;5026720;28;20455;-41
2022/04/21 07:27:31;;;;;;;10.83;9.83;;;19.10;38.10;;;;;;5028206;28;20447;-41
2022/04/21 07:29:56;;;;;;;9.80;8.93;;;19.20;37.40;;;;;;5023193;28;20542;-41
2022/04/21 07:32:22;;;;;;;12.33;10.07;;;19.30;37.50;;;;;;5028143;28;20645;-41
2022/04/21 07:34:48;;;;;;;10.73;9.83;;;19.40;37.30;;;;;;5030094;28;20212;-41
2022/04/21 07:37:13;;;;;;;10.47;9.67;;;19.50;37.00;;;;;;5028803;28;20196;-41
2022/04/21 07:39:43;;;;;;;10.60;9.70;;;19.50;37.30;;;;;;5026688;28;20561;-41
2022/04/21 07:42:10;;;;;;;10.87;9.60;;;19.60;37.20;;;;;;5028624;28;20687;-41
2022/04/21 07:44:36;;;;;;;10.03;9.13;;;19.50;37.60;;;;;;5027027;28;20513;-41
2022/04/21 07:47:04;;;;;;;10.80;9.80;;;19.70;37.40;;;;;;5022939;28;20485;-46
2022/04/21 07:49:45;;;;;;;10.30;9.30;;;19.80;37.80;;;;;;5026022;28;20924;-41
2022/04/21 07:55:19;;;;;;;10.37;9.40;;;20.00;36.50;;;;;;5014180;28;20543;-41
2022/04/21 07:57:47;;;;;;;10.17;9.30;;;20.00;36.30;;;;;;5023666;28;20440;-41
2022/04/21 08:00:15;;;;;;;9.30;8.50;;;20.00;36.30;;;;;;5018327;28;20426;-41
2022/04/21 08:02:42;;;;;;;9.40;8.60;;;20.10;36.20;;;;;;5029088;28;20552;-41
2022/04/21 08:05:10;;;;;;;10.70;9.80;;;20.10;36.30;;;;;;5030563;28;21025;-41
2022/04/21 08:07:36;;;;;;;11.27;8.87;;;20.20;36.40;;;;;;5031918;28;20448;-41
2022/04/21 08:10:04;;;;;;;9.97;8.30;;;20.30;37.00;;;;;;5033102;28;20438;-41
2022/04/21 08:12:44;;;;;;;11.80;8.57;;;20.30;37.20;;;;;;5032836;28;20487;-41
2022/04/21 08:15:11;;;;;;;10.00;9.03;;;20.40;37.20;;;;;;5029353;28;20526;-41
2022/04/21 08:17:38;;;;;;;9.23;8.53;;;20.40;36.60;;;;;;5030038;28;20494;-41
2022/04/21 08:20:09;;;;;;;10.83;9.93;;;20.50;36.50;;;;;;5033453;28;20424;-41
2022/04/21 08:22:35;;;;;;;9.70;8.70;;;20.40;35.70;;;;;;5032511;28;20458;-41
2022/04/21 08:33:15;;;;;;;8.03;7.27;;;20.50;33.30;;;;;;5031031;28;20560;-41
2022/04/21 08:35:41;;;;;;;9.53;7.33;;;20.40;33.60;;;;;;5032391;28;20589;-41
2022/04/21 08:38:10;;;;;;;7.43;6.83;;;20.50;34.30;;;;;;5032241;28;20443;-41
2022/04/21 08:40:45;;;;;;;7.87;7.20;;;20.60;34.90;;;;;;5030963;28;20444;-41
2022/04/21 08:43:17;;;;;;;6.97;6.40;;;20.70;34.00;;;;;;5032608;28;20435;-41
2022/04/21 08:45:44;;;;;;;8.13;7.40;;;20.70;33.90;;;;;;5033164;28;20427;-41
2022/04/21 08:48:14;;;;;;;6.80;6.20;;;20.70;33.70;;;;;;5032378;28;20459;-41
2022/04/21 08:50:41;;;;;;;7.80;6.90;;;20.60;33.70;;;;;;5029179;28;20789;-41
2022/04/21 08:53:08;;;;;;;7.43;6.73;;;20.70;33.60;;;;;;5029575;28;20517;-41
2022/04/21 08:55:34;;;;;;;7.23;6.63;;;20.80;33.20;;;;;;5032938;28;20424;-41
2022/04/21 08:58:01;;;;;;;6.97;6.37;;;20.30;33.40;;;;;;5031923;28;20493;-41
2022/04/21 09:00:27;;;;;;;6.63;6.03;;;20.60;33.80;;;;;;5026757;28;20234;-43
2022/04/21 09:02:53;;;;;;;7.70;7.00;;;20.80;33.10;;;;;;5022724;28;20437;-41
2022/04/21 09:05:20;;;;;;;6.20;5.77;;;20.70;33.20;;;;;;5028884;28;20444;-41
2022/04/21 09:07:48;;;;;;;6.80;6.13;;;20.70;32.80;;;;;;5025770;28;20543;-40
2022/04/21 09:10:15;;;;;;;7.10;6.37;;;21.00;32.40;;;;;;5029623;28;20863;-41
2022/04/21 09:12:55;;;;;;;6.10;5.60;;;21.30;32.50;;;;;;5027587;28;20534;-41
2022/04/21 09:15:24;;;;;;;6.57;6.07;;;21.50;31.70;;;;;;5020457;28;20483;-43
2022/04/21 09:17:52;;;;;;;6.17;5.67;;;21.80;30.90;;;;;;5020116;28;20448;-41
2022/04/21 09:20:20;;;;;;;6.20;5.30;;;21.60;31.30;;;;;;5029796;28;20436;-40
2022/04/21 09:22:53;;;;;;;5.77;5.27;;;21.80;31.30;;;;;;5024706;28;20444;-41
2022/04/21 09:25:30;;;;;;;5.80;5.30;;;21.90;31.60;;;;;;5030860;28;20456;-41
2022/04/21 09:27:57;;;;;;;5.70;5.20;;;22.00;32.20;;;;;;5025511;28;20527;-41
2022/04/21 09:30:24;;;;;;;6.47;5.87;;;22.30;32.70;;;;;;5028454;28;20448;-41
2022/04/21 09:32:55;;;;;;;5.87;5.43;;;22.40;32.90;;;;;;5024495;28;20543;-41
2022/04/21 09:35:27;;;;;;;6.00;5.40;;;22.60;33.00;;;;;;5028825;28;20448;-41
2022/04/21 09:37:58;;;;;;;5.63;5.20;;;22.80;33.00;;;;;;5022999;28;20482;-41
2022/04/21 09:40:28;;;;;;;5.30;4.90;;;23.00;33.00;;;;;;5026171;28;20483;-41
2022/04/21 09:43:01;;;;;;;5.67;5.17;;;23.00;31.80;;;;;;5027319;28;20975;-41
2022/04/21 09:48:29;;;;;;;5.70;5.30;;;23.40;32.70;;;;;;5025446;28;20534;-41
2022/04/21 09:51:16;;;;;;;5.30;4.90;;;23.50;31.90;;;;;;5022604;28;20440;-41
2022/04/21 09:53:50;;;;;;;7.03;6.20;;;23.50;31.50;;;;;;5025867;28;20499;-41
2022/04/21 09:56:17;;;;;;;9.10;7.10;;;23.70;32.80;;;;;;5026597;28;20477;-41
2022/04/21 09:58:43;;;;;;;7.00;6.00;;;23.80;32.80;;;;;;5026233;28;20927;-41
2022/04/21 10:01:09;;;;;;;6.57;5.97;;;24.00;32.80;;;;;;5020506;28;20438;-41
2022/04/21 10:03:35;;;;;;;5.87;4.83;;;24.10;31.80;;;;;;5024243;28;20471;-42
2022/04/21 10:06:02;;;;;;;8.43;4.80;;;24.30;32.30;;;;;;5016219;28;20444;-41
2022/04/21 10:08:29;;;;;;;5.13;4.73;;;24.50;32.30;;;;;;5029250;28;20206;-41
2022/04/21 10:10:56;;;;;;;8.77;4.90;;;24.60;31.20;;;;;;5021135;28;20510;-41
2022/04/21 10:13:22;;;;;;;5.30;4.80;;;24.80;30.50;;;;;;5027770;28;20902;-41
2022/04/21 10:15:49;;;;;;;5.33;4.93;;;24.80;29.90;;;;;;5029319;28;20449;-41
2022/04/21 10:18:16;;;;;;;5.53;5.13;;;24.70;29.50;;;;;;5029151;28;20440;-41
2022/04/21 10:20:44;;;;;;;5.30;4.90;;;24.80;29.80;;;;;;5024692;28;20527;-41
2022/04/21 10:23:17;;;;;;;7.30;5.13;;;24.90;30.20;;;;;;5026788;28;20452;-41
2022/04/21 10:25:43;;;;;;;5.73;5.13;;;25.10;30.70;;;;;;5027472;28;20494;-41
2022/04/21 10:28:35;;;;;;;5.10;4.70;;;25.30;30.40;;;;;;5021092;28;20445;-41
2022/04/21 10:31:33;;;;;;;4.50;4.13;;;25.30;29.10;;;;;;5023726;28;20451;-41
2022/04/21 10:34:06;;;;;;;4.17;3.87;;;25.30;29.70;;;;;;5026899;28;20494;-41
2022/04/21 10:36:36;;;;;;;3.83;3.53;;;25.40;30.30;;;;;;5024029;28;20800;-41
2022/04/21 10:39:30;;;;;;;3.97;3.67;;;25.60;29.50;;;;;;5011425;28;20441;-40
2022/04/21 10:42:16;;;;;;;4.00;3.70;;;25.70;29.40;;;;;;5016202;28;20841;-40
2022/04/21 10:44:49;;;;;;;4.00;3.70;;;25.60;29.60;;;;;;5024150;28;20495;-41
2022/04/21 10:47:37;;;;;;;6.43;3.93;;;25.60;29.50;;;;;;5017716;28;20566;-41
2022/04/21 10:50:17;;;;;;;6.20;2.57;;;25.50;30.10;;;;;;5018465;28;20517;-41
2022/04/21 10:58:33;;;;;;;2.30;2.10;;;25.90;30.50;;;;;;5024810;28;20458;-41
2022/04/21 11:01:07;;;;;;;2.40;2.20;;;26.20;30.40;;;;;;5021776;28;20467;-41
2022/04/21 11:03:33;;;;;;;1.70;1.60;;;26.20;30.00;;;;;;5027663;28;20505;-41
2022/04/21 11:06:15;;;;;;;2.17;1.80;;;26.30;30.20;;;;;;5022595;28;20448;-41
2022/04/21 11:08:42;;;;;;;1.83;1.67;;;26.40;30.00;;;;;;5026367;28;20216;-41
2022/04/21 11:11:08;;;;;;;5.20;2.00;;;26.40;29.90;;;;;;5028336;28;20439;-41
2022/04/21 11:13:42;;;;;;;2.07;1.97;;;26.40;29.90;;;;;;5028612;28;20502;-41
2022/04/21 11:16:07;;;;;;;6.10;1.83;;;26.50;29.90;;;;;;5027192;28;20454;-41
2022/04/21 11:18:33;;;;;;;2.93;1.80;;;26.50;30.00;;;;;;5028673;28;20452;-41
2022/04/21 11:21:22;;;;;;;1.93;1.83;;;26.60;29.90;;;;;;5024647;28;20604;-41
2022/04/21 11:23:48;;;;;;;1.87;1.70;;;26.80;29.50;;;;;;5019668;28;20198;-41
2022/04/21 11:26:13;;;;;;;2.50;1.87;;;26.90;29.10;;;;;;5028186;28;20839;-41
2022/04/21 11:28:44;;;;;;;2.20;1.80;;;27.20;28.80;;;;;;5020575;28;20202;-41
2022/04/21 11:31:10;;;;;;;1.60;1.50;;;27.00;28.70;;;;;;5022502;28;20240;-41
2022/04/21 11:33:44;;;;;;;1.70;1.60;;;27.20;28.30;;;;;;5027145;28;20479;-41
2022/04/21 11:36:12;;;;;;;1.57;1.47;;;27.40;28.10;;;;;;5027596;28;20472;-41
2022/04/21 11:38:42;;;;;;;1.70;1.60;;;27.40;27.60;;;;;;5021760;28;20530;-41
2022/04/21 11:41:09;;;;;;;1.53;1.40;;;27.50;28.10;;;;;;5027304;28;20530;-41
2022/04/21 11:43:36;;;;;;;1.47;1.30;;;27.60;27.00;;;;;;5027874;28;20884;-41
2022/04/21 11:46:07;;;;;;;1.67;1.57;;;27.50;26.80;;;;;;5023453;28;20475;-41
2022/04/21 11:48:36;;;;;;;1.57;1.47;;;27.60;25.90;;;;;;5021275;28;20476;-41
2022/04/21 11:51:03;;;;;;;1.60;1.50;;;27.80;26.10;;;;;;5022746;28;20792;-41
2022/04/21 11:53:31;;;;;;;1.77;1.67;;;28.00;25.20;;;;;;5028675;28;20487;-41
2022/04/21 11:55:57;;;;;;;1.57;1.47;;;27.60;25.40;;;;;;5037781;28;20452;-41
2022/04/21 11:58:40;;;;;;;3.57;1.50;;;27.30;25.30;;;;;;5029977;28;20467;-41
2022/04/21 12:06:50;;;;;;;1.53;1.43;;;27.20;27.10;;;;;;5015242;28;20505;-42
2022/04/21 12:09:18;;;;;;;1.90;1.63;;;27.60;27.10;;;;;;5028905;28;20517;-42
2022/04/21 12:12:02;;;;;;;4.80;1.70;;;27.20;25.90;;;;;;5019411;28;20511;-42
2022/04/21 12:14:29;;;;;;;1.70;1.60;;;27.50;25.80;;;;;;5018536;28;20483;-41
2022/04/21 12:16:55;;;;;;;2.07;1.93;;;27.20;25.80;;;;;;5025157;28;20468;-42
2022/04/21 12:19:37;;;;;;;1.87;1.77;;;27.20;25.70;;;;;;5025908;28;20490;-41
2022/04/21 12:22:13;;;;;;;2.33;1.80;;;27.30;26.00;;;;;;5019117;28;20461;-41
2022/04/21 12:24:49;;;;;;;1.40;1.30;;;27.40;25.30;;;;;;5018138;28;20439;-41
2022/04/21 12:27:17;;;;;;;1.90;1.80;;;27.70;25.70;;;;;;5019217;28;20448;-41
2022/04/21 12:29:51;;;;;;;2.20;2.10;;;27.80;25.70;;;;;;5021542;28;20470;-41
2022/04/21 12:32:41;;;;;;;1.60;1.50;;;28.10;25.50;;;;;;5026376;28;21033;-41
2022/04/21 12:35:10;;;;;;;2.30;2.10;;;28.00;25.20;;;;;;5013780;28;20440;-42
2022/04/21 12:37:37;;;;;;;2.77;2.57;;;28.10;25.30;;;;;;5020915;28;20444;-41
2022/04/21 12:40:04;;;;;;;3.00;2.20;;;28.10;25.50;;;;;;5019937;28;20445;-42
2022/04/21 12:42:31;;;;;;;2.50;2.30;;;28.30;25.80;;;;;;5026587;28;20478;-41
2022/04/21 12:44:58;;;;;;;1.90;1.70;;;28.30;25.90;;;;;;5025791;28;20444;-42
2022/04/21 12:47:24;;;;;;;1.70;1.60;;;27.30;25.60;;;;;;5022119;28;20468;-41
2022/04/21 12:50:08;;;;;;;2.80;2.60;;;27.30;25.80;;;;;;5018296;28;20468;-42
2022/04/21 12:52:40;;;;;;;2.70;2.50;;;27.60;26.20;;;;;;5028260;28;20487;-41
2022/04/21 12:55:30;;;;;;;2.70;2.50;;;27.60;26.20;;;;;;5025836;28;20444;-42
2022/04/21 12:57:58;;;;;;;2.50;2.30;;;27.70;27.00;;;;;;5030054;28;20448;-41
2022/04/21 13:00:24;;;;;;;2.47;2.37;;;27.70;27.40;;;;;;5024569;28;20522;-41
2022/04/21 13:02:49;;;;;;;2.63;2.43;;;27.80;26.20;;;;;;5022271;28;20995;-42
2022/04/21 13:05:15;;;;;;;3.40;2.50;;;27.80;26.20;;;;;;5031021;28;20247;-42
2022/04/21 13:07:41;;;;;;;2.60;2.40;;;27.80;26.00;;;;;;5027205;28;20204;-42
2022/04/21 13:10:06;;;;;;;2.73;2.53;;;27.50;26.20;;;;;;5024491;28;20271;-41
2022/04/21 13:12:33;;;;;;;2.73;2.40;;;27.40;26.40;;;;;;5031205;28;20237;-43
2022/04/21 13:14:59;;;;;;;2.87;1.90;;;27.50;26.90;;;;;;5028737;28;20189;-41
2022/04/21 13:17:25;;;;;;;2.57;2.37;;;27.40;27.60;;;;;;5031832;28;20527;-41
2022/04/21 13:19:51;;;;;;;3.33;3.03;;;27.50;27.30;;;;;;5029831;28;20965;-41
2022/04/21 13:22:16;;;;;;;2.53;2.33;;;26.90;26.40;;;;;;5031137;28;20239;-41
2022/04/21 13:24:42;;;;;;;2.93;2.23;;;26.90;26.90;;;;;;5028576;28;20254;-42
2022/04/21 13:27:07;;;;;;;2.20;2.10;;;27.10;26.70;;;;;;5030421;28;20280;-41
2022/04/21 13:29:36;;;;;;;2.73;2.40;;;27.30;26.30;;;;;;5029415;28;20189;-41
2022/04/21 13:34:45;;;;;;;2.77;2.30;;;27.30;26.30;;;;;;5019631;28;20517;-41
2022/04/21 13:37:11;;;;;;;2.70;2.50;;;27.10;26.10;;;;;;5027506;28;20890;-41
2022/04/21 13:39:40;;;;;;;3.77;2.30;;;27.00;26.00;;;;;;5030648;28;20275;-41
2022/04/21 13:42:06;;;;;;;2.00;1.70;;;26.80;26.50;;;;;;5027865;28;20208;-42
2022/04/21 13:44:32;;;;;;;2.53;2.20;;;26.80;26.30;;;;;;5028402;28;20502;-41
2022/04/21 13:46:57;;;;;;;4.83;2.00;;;26.70;26.20;;;;;;5027223;28;20487;-41
2022/04/21 13:49:23;;;;;;;2.93;2.63;;;26.80;25.90;;;;;;5030587;28;20192;-41